sensor_id;sensor_type;location;lat;lon;timestamp;pressure;altitude;pressure_sealevel;temperature;humidity
26937;BME280;14495;48.116;11.676;2023-06-04T00:01:06;95513.56;;;11.32;100.00
26937;BME280;14495;48.116;11.676;2023-06-04T00:03:34;95513.56;;;11.19;100.00
26937;BME280;14495;48.116;11.676;2023-06-04T00:05:59;95515.22;;;11.08;100.00
26937;BME280;14495;48.116;11.676;2023-06-04T00:08:25;95521.09;;;11.11;100.00
26937;BME280;14495;48.116;11.676;2023-06-04T00:10:50;95518.75;;;11.07;100.00
26937;BME280;14495;48.116;11.676;2023-06-04T00:13:15;95518.75;;;11.07;100.00
26937;BME280;14495;48.116;11.676;2023-06-04T00:15:41;95510.19;;;11.05;100.00
26937;BME280;14495;48.116;11.676;2023-06-04T00:18:06;95519.72;;;11.06;100.00
26937;BME280;14495;48.116;11.676;2023-06-04T00:20:32;95519.53;;;11.09;100.00
26937;BME280;14495;48.116;11.676;2023-06-04T00:22:57;95505.28;;;11.00;100.00
26937;BME280;14495;48.116;11.676;2023-06-04T00:25:23;95508.91;;;10.97;100.00
26937;BME280;14495;48.116;11.676;2023-06-04T00:27:48;95503.69;;;10.85;100.00
26937;BME280;14495;48.116;11.676;2023-06-04T00:30:13;95502.72;;;10.86;100.00
26937;BME280;14495;48.116;11.676;2023-06-04T00:32:39;95501.25;;;10.81;100.00
26937;BME280;14495;48.116;11.676;2023-06-04T00:35:05;95493.50;;;10.80;100.00
26937;BME280;14495;48.116;11.676;2023-06-04T00:37:31;95497.59;;;10.84;100.00
26937;BME280;14495;48.116;11.676;2023-06-04T00:39:56;95495.06;;;10.82;100.00
26937;BME280;14495;48.116;11.676;2023-06-04T00:42:22;95503.03;;;10.81;100.00
26937;BME280;14495;48.116;11.676;2023-06-04T00:44:47;95501.97;;;10.83;100.00
26937;BME280;14495;48.116;11.676;2023-06-04T00:47:14;95510.31;;;10.76;100.00
26937;BME280;14495;48.116;11.676;2023-06-04T00:49:40;95504.47;;;10.72;100.00
26937;BME280;14495;48.116;11.676;2023-06-04T00:52:10;95501.44;;;10.78;100.00
26937;BME280;14495;48.116;11.676;2023-06-04T00:54:36;95503.72;;;10.70;100.00
26937;BME280;14495;48.116;11.676;2023-06-04T00:57:04;95501.13;;;10.70;100.00
26937;BME280;14495;48.116;11.676;2023-06-04T00:59:30;95500.25;;;10.70;100.00
26937;BME280;14495;48.116;11.676;2023-06-04T01:02:05;95502.84;;;10.57;100.00
26937;BME280;14495;48.116;11.676;2023-06-04T01:04:50;95498.53;;;10.56;100.00
26937;BME280;14495;48.116;11.676;2023-06-04T01:07:19;95505.09;;;10.49;100.00
26937;BME280;14495;48.116;11.676;2023-06-04T01:09:44;95510.63;;;10.44;100.00
26937;BME280;14495;48.116;11.676;2023-06-04T01:12:11;95506.00;;;10.35;100.00
26937;BME280;14495;48.116;11.676;2023-06-04T01:14:37;95511.44;;;10.30;100.00
26937;BME280;14495;48.116;11.676;2023-06-04T01:17:06;95518.22;;;10.20;100.00
26937;BME280;14495;48.116;11.676;2023-06-04T01:22:39;95518.78;;;10.11;100.00
26937;BME280;14495;48.116;11.676;2023-06-04T01:25:14;95517.19;;;10.08;100.00
26937;BME280;14495;48.116;11.676;2023-06-04T01:27:46;95513.00;;;10.05;100.00
26937;BME280;14495;48.116;11.676;2023-06-04T01:30:14;95513.66;;;9.95;100.00
26937;BME280;14495;48.116;11.676;2023-06-04T01:32:41;95518.88;;;9.95;100.00
26937;BME280;14495;48.116;11.676;2023-06-04T01:35:11;95519.44;;;9.85;100.00
26937;BME280;14495;48.116;11.676;2023-06-04T01:37:41;95522.63;;;9.91;100.00
26937;BME280;14495;48.116;11.676;2023-06-04T01:40:07;95521.75;;;9.90;100.00
26937;BME280;14495;48.116;11.676;2023-06-04T01:42:34;95518.88;;;9.80;100.00
26937;BME280;14495;48.116;11.676;2023-06-04T01:45:00;95525.78;;;9.81;100.00
26937;BME280;14495;48.116;11.676;2023-06-04T01:47:25;95530.81;;;9.70;100.00
26937;BME280;14495;48.116;11.676;2023-06-04T01:49:50;95524.19;;;9.64;100.00
26937;BME280;14495;48.116;11.676;2023-06-04T01:52:16;95530.34;;;9.63;100.00
26937;BME280;14495;48.116;11.676;2023-06-04T01:54:41;95528.06;;;9.43;100.00
26937;BME280;14495;48.116;11.676;2023-06-04T01:57:08;95522.88;;;9.43;100.00
26937;BME280;14495;48.116;11.676;2023-06-04T01:59:35;95529.94;;;9.41;100.00
26937;BME280;14495;48.116;11.676;2023-06-04T02:02:02;95535.03;;;9.28;100.00
26937;BME280;14495;48.116;11.676;2023-06-04T02:04:27;95535.31;;;9.38;100.00
26937;BME280;14495;48.116;11.676;2023-06-04T02:06:53;95534.50;;;9.37;100.00
26937;BME280;14495;48.116;11.676;2023-06-04T02:09:18;95526.59;;;9.39;100.00
26937;BME280;14495;48.116;11.676;2023-06-04T02:11:44;95535.03;;;9.28;100.00
26937;BME280;14495;48.116;11.676;2023-06-04T02:14:09;95542.03;;;9.27;100.00
26937;BME280;14495;48.116;11.676;2023-06-04T02:16:37;95538.47;;;9.28;100.00
26937;BME280;14495;48.116;11.676;2023-06-04T02:19:03;95534.00;;;9.31;100.00
26937;BME280;14495;48.116;11.676;2023-06-04T02:21:28;95536.97;;;9.24;100.00
26937;BME280;14495;48.116;11.676;2023-06-04T02:23:54;95538.09;;;9.20;100.00
26937;BME280;14495;48.116;11.676;2023-06-04T02:26:19;95535.09;;;9.12;100.00
26937;BME280;14495;48.116;11.676;2023-06-04T02:28:44;95537.31;;;9.04;100.00
26937;BME280;14495;48.116;11.676;2023-06-04T02:31:10;95542.00;;;8.97;100.00
26937;BME280;14495;48.116;11.676;2023-06-04T02:33:35;95542.38;;;8.91;100.00
26937;BME280;14495;48.116;11.676;2023-06-04T02:36:00;95540.59;;;8.92;100.00
26937;BME280;14495;48.116;11.676;2023-06-04T02:38:27;95548.34;;;8.77;100.00
26937;BME280;14495;48.116;11.676;2023-06-04T02:40:52;95549.66;;;8.70;100.00
26937;BME280;14495;48.116;11.676;2023-06-04T02:43:20;95553.16;;;8.69;100.00
26937;BME280;14495;48.116;11.676;2023-06-04T02:45:45;95554.66;;;8.73;100.00
26937;BME280;14495;48.116;11.676;2023-06-04T02:48:12;95546.78;;;8.75;100.00
26937;BME280;14495;48.116;11.676;2023-06-04T02:50:38;95546.25;;;8.68;100.00
26937;BME280;14495;48.116;11.676;2023-06-04T02:53:04;95542.34;;;8.61;100.00
26937;BME280;14495;48.116;11.676;2023-06-04T02:55:29;95547.56;;;8.61;100.00
26937;BME280;14495;48.116;11.676;2023-06-04T02:57:57;95545.44;;;8.67;100.00
26937;BME280;14495;48.116;11.676;2023-06-04T03:00:22;95541.75;;;8.56;100.00
26937;BME280;14495;48.116;11.676;2023-06-04T03:02:48;95544.19;;;8.43;100.00
26937;BME280;14495;48.116;11.676;2023-06-04T03:05:14;95544.94;;;8.45;100.00
26937;BME280;14495;48.116;11.676;2023-06-04T03:07:42;95553.09;;;8.39;100.00
26937;BME280;14495;48.116;11.676;2023-06-04T03:10:12;95549.34;;;8.44;100.00
26937;BME280;14495;48.116;11.676;2023-06-04T03:12:38;95544.03;;;8.46;100.00
26937;BME280;14495;48.116;11.676;2023-06-04T03:15:04;95548.97;;;8.50;100.00
26937;BME280;14495;48.116;11.676;2023-06-04T03:17:30;95548.16;;;8.50;100.00
26937;BME280;14495;48.116;11.676;2023-06-04T03:19:56;95548.81;;;8.54;100.00
26937;BME280;14495;48.116;11.676;2023-06-04T03:22:22;95555.78;;;8.53;100.00
26937;BME280;14495;48.116;11.676;2023-06-04T03:24:47;95555.00;;;8.35;100.00
26937;BME280;14495;48.116;11.676;2023-06-04T03:27:13;95565.25;;;8.38;100.00
26937;BME280;14495;48.116;11.676;2023-06-04T03:29:38;95562.06;;;8.33;100.00
26937;BME280;14495;48.116;11.676;2023-06-04T03:32:04;95568.25;;;8.30;100.00
26937;BME280;14495;48.116;11.676;2023-06-04T03:34:30;95570.63;;;8.35;100.00
26937;BME280;14495;48.116;11.676;2023-06-04T03:36:59;95569.94;;;8.31;100.00
26937;BME280;14495;48.116;11.676;2023-06-04T03:39:25;95574.31;;;8.31;100.00
26937;BME280;14495;48.116;11.676;2023-06-04T03:41:50;95573.97;;;8.37;100.00
26937;BME280;14495;48.116;11.676;2023-06-04T03:44:16;95575.50;;;8.41;100.00
26937;BME280;14495;48.116;11.676;2023-06-04T03:46:43;95587.38;;;8.47;100.00
26937;BME280;14495;48.116;11.676;2023-06-04T03:49:09;95579.03;;;8.40;100.00
26937;BME280;14495;48.116;11.676;2023-06-04T03:51:35;95578.81;;;8.45;100.00
26937;BME280;14495;48.116;11.676;2023-06-04T03:54:01;95586.28;;;8.51;100.00
26937;BME280;14495;48.116;11.676;2023-06-04T03:56:27;95586.72;;;8.59;100.00
26937;BME280;14495;48.116;11.676;2023-06-04T03:58:53;95592.16;;;8.70;100.00
26937;BME280;14495;48.116;11.676;2023-06-04T04:01:19;95589.47;;;8.72;100.00
26937;BME280;14495;48.116;11.676;2023-06-04T04:03:44;95584.25;;;8.72;100.00
26937;BME280;14495;48.116;11.676;2023-06-04T04:06:13;95590.22;;;8.74;100.00
26937;BME280;14495;48.116;11.676;2023-06-04T04:08:39;95592.47;;;8.80;100.00
26937;BME280;14495;48.116;11.676;2023-06-04T04:11:15;95588.59;;;8.87;100.00
26937;BME280;14495;48.116;11.676;2023-06-04T04:13:41;95588.09;;;8.97;100.00
26937;BME280;14495;48.116;11.676;2023-06-04T04:16:07;95583.59;;;9.15;100.00
26937;BME280;14495;48.116;11.676;2023-06-04T04:18:33;95586.88;;;9.18;100.00
26937;BME280;14495;48.116;11.676;2023-06-04T04:20:59;95587.53;;;9.22;100.00
26937;BME280;14495;48.116;11.676;2023-06-04T04:23:24;95593.06;;;9.32;100.00
26937;BME280;14495;48.116;11.676;2023-06-04T04:25:50;95592.00;;;9.50;100.00
26937;BME280;14495;48.116;11.676;2023-06-04T04:28:16;95594.22;;;9.56;100.00
26937;BME280;14495;48.116;11.676;2023-06-04T04:30:42;95593.97;;;9.61;100.00
26937;BME280;14495;48.116;11.676;2023-06-04T04:33:09;95589.41;;;9.79;100.00
26937;BME280;14495;48.116;11.676;2023-06-04T04:35:36;95595.59;;;9.92;100.00
26937;BME280;14495;48.116;11.676;2023-06-04T04:38:02;95603.06;;;9.98;100.00
26937;BME280;14495;48.116;11.676;2023-06-04T04:40:30;95609.38;;;10.09;100.00
26937;BME280;14495;48.116;11.676;2023-06-04T04:42:57;95602.41;;;10.23;100.00
26937;BME280;14495;48.116;11.676;2023-06-04T04:45:22;95602.31;;;10.39;100.00
26937;BME280;14495;48.116;11.676;2023-06-04T04:47:48;95600.81;;;10.50;100.00
26937;BME280;14495;48.116;11.676;2023-06-04T04:50:14;95606.97;;;10.63;100.00
26937;BME280;14495;48.116;11.676;2023-06-04T04:52:39;95610.38;;;10.78;100.00
26937;BME280;14495;48.116;11.676;2023-06-04T04:55:05;95604.16;;;10.93;100.00
26937;BME280;14495;48.116;11.676;2023-06-04T04:57:30;95603.88;;;10.98;100.00
26937;BME280;14495;48.116;11.676;2023-06-04T04:59:56;95608.13;;;11.13;100.00
26937;BME280;14495;48.116;11.676;2023-06-04T05:02:21;95612.78;;;11.35;100.00
26937;BME280;14495;48.116;11.676;2023-06-04T05:04:46;95608.31;;;11.50;100.00
26937;BME280;14495;48.116;11.676;2023-06-04T05:07:12;95609.06;;;11.65;100.00
26937;BME280;14495;48.116;11.676;2023-06-04T05:09:37;95614.13;;;11.81;100.00
26937;BME280;14495;48.116;11.676;2023-06-04T05:12:05;95622.25;;;12.04;100.00
26937;BME280;14495;48.116;11.676;2023-06-04T05:14:32;95618.34;;;12.22;100.00
26937;BME280;14495;48.116;11.676;2023-06-04T05:16:57;95623.50;;;12.36;100.00
26937;BME280;14495;48.116;11.676;2023-06-04T05:19:22;95625.66;;;12.43;100.00
26937;BME280;14495;48.116;11.676;2023-06-04T05:21:49;95629.03;;;12.45;100.00
26937;BME280;14495;48.116;11.676;2023-06-04T05:24:15;95630.28;;;12.52;100.00
26937;BME280;14495;48.116;11.676;2023-06-04T05:26:40;95629.00;;;12.57;100.00
26937;BME280;14495;48.116;11.676;2023-06-04T05:29:06;95632.13;;;12.75;100.00
26937;BME280;14495;48.116;11.676;2023-06-04T05:31:32;95623.28;;;12.76;100.00
26937;BME280;14495;48.116;11.676;2023-06-04T05:33:59;95631.53;;;12.96;100.00
26937;BME280;14495;48.116;11.676;2023-06-04T05:36:27;95626.13;;;13.10;100.00
26937;BME280;14495;48.116;11.676;2023-06-04T05:38:52;95627.75;;;13.24;100.00
26937;BME280;14495;48.116;11.676;2023-06-04T05:41:31;95630.66;;;13.32;100.00
26937;BME280;14495;48.116;11.676;2023-06-04T05:43:56;95634.47;;;13.52;100.00
26937;BME280;14495;48.116;11.676;2023-06-04T05:46:22;95645.19;;;13.49;100.00
26937;BME280;14495;48.116;11.676;2023-06-04T05:48:47;95643.66;;;13.58;100.00
26937;BME280;14495;48.116;11.676;2023-06-04T05:51:13;95647.63;;;13.64;100.00
26937;BME280;14495;48.116;11.676;2023-06-04T05:53:39;95657.78;;;14.04;100.00
26937;BME280;14495;48.116;11.676;2023-06-04T05:56:04;95652.34;;;14.29;97.84
26937;BME280;14495;48.116;11.676;2023-06-04T05:58:30;95653.38;;;15.61;89.31
26937;BME280;14495;48.116;11.676;2023-06-04T06:00:56;95652.56;;;17.86;72.62
26937;BME280;14495;48.116;11.676;2023-06-04T06:03:21;95649.50;;;19.50;66.29
26937;BME280;14495;48.116;11.676;2023-06-04T06:05:47;95650.88;;;21.47;57.52
26937;BME280;14495;48.116;11.676;2023-06-04T06:08:13;95645.94;;;21.93;55.38
26937;BME280;14495;48.116;11.676;2023-06-04T06:10:39;95646.00;;;23.69;48.80
26937;BME280;14495;48.116;11.676;2023-06-04T06:13:04;95647.88;;;23.29;49.04
26937;BME280;14495;48.116;11.676;2023-06-04T06:15:30;95650.28;;;22.35;48.44
26937;BME280;14495;48.116;11.676;2023-06-04T06:17:55;95650.47;;;22.26;49.14
26937;BME280;14495;48.116;11.676;2023-06-04T06:20:21;95640.66;;;24.01;46.41
26937;BME280;14495;48.116;11.676;2023-06-04T06:22:49;95653.94;;;24.47;45.28
26937;BME280;14495;48.116;11.676;2023-06-04T06:25:15;95658.78;;;24.81;45.35
26937;BME280;14495;48.116;11.676;2023-06-04T06:27:41;95656.66;;;24.62;44.74
26937;BME280;14495;48.116;11.676;2023-06-04T06:30:07;95665.63;;;24.46;45.27
26937;BME280;14495;48.116;11.676;2023-06-04T06:32:33;95663.59;;;25.16;43.47
26937;BME280;14495;48.116;11.676;2023-06-04T06:34:58;95658.78;;;25.41;42.96
26937;BME280;14495;48.116;11.676;2023-06-04T06:37:24;95665.84;;;24.21;44.24
26937;BME280;14495;48.116;11.676;2023-06-04T06:39:49;95676.09;;;24.70;44.00
26937;BME280;14495;48.116;11.676;2023-06-04T06:42:15;95680.41;;;26.12;41.80
26937;BME280;14495;48.116;11.676;2023-06-04T06:44:43;95678.59;;;25.98;41.17
26937;BME280;14495;48.116;11.676;2023-06-04T06:47:09;95669.00;;;25.89;43.05
26937;BME280;14495;48.116;11.676;2023-06-04T06:49:35;95681.25;;;26.91;40.00
26937;BME280;14495;48.116;11.676;2023-06-04T06:52:01;95676.34;;;25.65;42.42
26937;BME280;14495;48.116;11.676;2023-06-04T06:54:26;95675.63;;;26.57;40.08
26937;BME280;14495;48.116;11.676;2023-06-04T06:56:52;95671.97;;;26.37;39.93
26937;BME280;14495;48.116;11.676;2023-06-04T06:59:18;95654.00;;;26.31;40.79
26937;BME280;14495;48.116;11.676;2023-06-04T07:01:43;95671.44;;;25.02;41.91
26937;BME280;14495;48.116;11.676;2023-06-04T07:04:09;95674.78;;;26.07;40.51
26937;BME280;14495;48.116;11.676;2023-06-04T07:06:36;95666.13;;;26.27;40.28
26937;BME280;14495;48.116;11.676;2023-06-04T07:09:01;95659.59;;;26.86;39.75
26937;BME280;14495;48.116;11.676;2023-06-04T07:11:30;95665.28;;;27.04;39.92
26937;BME280;14495;48.116;11.676;2023-06-04T07:13:56;95672.03;;;27.00;39.75
26937;BME280;14495;48.116;11.676;2023-06-04T07:16:21;95665.44;;;26.68;39.57
26937;BME280;14495;48.116;11.676;2023-06-04T07:18:47;95666.31;;;28.00;38.60
26937;BME280;14495;48.116;11.676;2023-06-04T07:21:14;95660.72;;;27.05;39.88
26937;BME280;14495;48.116;11.676;2023-06-04T07:23:40;95660.88;;;27.31;39.59
26937;BME280;14495;48.116;11.676;2023-06-04T07:26:05;95662.66;;;27.59;39.17
26937;BME280;14495;48.116;11.676;2023-06-04T07:28:32;95664.50;;;26.11;41.05
26937;BME280;14495;48.116;11.676;2023-06-04T07:30:57;95661.19;;;27.15;40.23
26937;BME280;14495;48.116;11.676;2023-06-04T07:33:23;95660.03;;;26.89;40.40
26937;BME280;14495;48.116;11.676;2023-06-04T07:35:49;95658.66;;;26.72;40.77
26937;BME280;14495;48.116;11.676;2023-06-04T07:38:14;95658.78;;;26.14;41.62
26937;BME280;14495;48.116;11.676;2023-06-04T07:40:40;95649.38;;;26.74;41.42
26937;BME280;14495;48.116;11.676;2023-06-04T07:43:05;95654.66;;;26.89;40.85
26937;BME280;14495;48.116;11.676;2023-06-04T07:45:30;95661.81;;;25.53;42.03
26937;BME280;14495;48.116;11.676;2023-06-04T07:47:56;95659.88;;;25.46;42.63
26937;BME280;14495;48.116;11.676;2023-06-04T07:50:21;95660.88;;;26.96;40.91
26937;BME280;14495;48.116;11.676;2023-06-04T07:52:47;95663.66;;;27.16;40.53
26937;BME280;14495;48.116;11.676;2023-06-04T07:55:12;95669.38;;;26.00;42.15
26937;BME280;14495;48.116;11.676;2023-06-04T07:57:37;95664.66;;;26.02;42.05
26937;BME280;14495;48.116;11.676;2023-06-04T08:00:03;95660.75;;;26.27;41.73
26937;BME280;14495;48.116;11.676;2023-06-04T08:02:29;95659.88;;;24.72;42.78
26937;BME280;14495;48.116;11.676;2023-06-04T08:04:55;95661.16;;;24.23;47.29
26937;BME280;14495;48.116;11.676;2023-06-04T08:07:21;95659.81;;;24.04;46.35
26937;BME280;14495;48.116;11.676;2023-06-04T08:09:46;95657.56;;;23.22;45.57
26937;BME280;14495;48.116;11.676;2023-06-04T08:12:12;95663.56;;;22.19;47.96
26937;BME280;14495;48.116;11.676;2023-06-04T08:14:41;95669.19;;;21.75;48.66
26937;BME280;14495;48.116;11.676;2023-06-04T08:17:06;95658.03;;;21.20;50.02
26937;BME280;14495;48.116;11.676;2023-06-04T08:19:32;95663.72;;;21.26;49.35
26937;BME280;14495;48.116;11.676;2023-06-04T08:21:57;95665.47;;;20.74;51.51
26937;BME280;14495;48.116;11.676;2023-06-04T08:24:22;95665.94;;;20.43;51.84
26937;BME280;14495;48.116;11.676;2023-06-04T08:26:48;95665.44;;;20.48;51.35
26937;BME280;14495;48.116;11.676;2023-06-04T08:29:13;95667.94;;;20.50;53.21
26937;BME280;14495;48.116;11.676;2023-06-04T08:31:38;95664.16;;;21.04;50.71
26937;BME280;14495;48.116;11.676;2023-06-04T08:34:05;95661.53;;;21.21;51.54
26937;BME280;14495;48.116;11.676;2023-06-04T08:36:30;95664.91;;;20.97;50.09
26937;BME280;14495;48.116;11.676;2023-06-04T08:38:57;95668.88;;;20.93;51.42
26937;BME280;14495;48.116;11.676;2023-06-04T08:41:38;95669.38;;;21.31;51.25
26937;BME280;14495;48.116;11.676;2023-06-04T08:44:09;95666.53;;;21.24;50.82
26937;BME280;14495;48.116;11.676;2023-06-04T08:46:37;95659.28;;;21.00;50.76
26937;BME280;14495;48.116;11.676;2023-06-04T08:49:05;95669.69;;;21.28;51.05
26937;BME280;14495;48.116;11.676;2023-06-04T08:51:33;95672.47;;;20.75;51.09
26937;BME280;14495;48.116;11.676;2023-06-04T08:53:59;95657.81;;;21.05;52.87
26937;BME280;14495;48.116;11.676;2023-06-04T08:56:25;95667.50;;;21.15;51.76
26937;BME280;14495;48.116;11.676;2023-06-04T08:58:56;95657.69;;;21.15;51.01
26937;BME280;14495;48.116;11.676;2023-06-04T09:01:25;95660.69;;;21.12;50.84
26937;BME280;14495;48.116;11.676;2023-06-04T09:03:50;95667.50;;;21.15;52.49
26937;BME280;14495;48.116;11.676;2023-06-04T09:06:16;95672.28;;;21.11;50.95
26937;BME280;14495;48.116;11.676;2023-06-04T09:08:43;95658.69;;;21.14;50.42
26937;BME280;14495;48.116;11.676;2023-06-04T09:11:11;95656.72;;;21.24;51.07
26937;BME280;14495;48.116;11.676;2023-06-04T09:13:39;95654.25;;;21.31;51.25
26937;BME280;14495;48.116;11.676;2023-06-04T09:16:05;95659.78;;;21.38;50.97
26937;BME280;14495;48.116;11.676;2023-06-04T09:18:31;95660.22;;;21.68;50.15
26937;BME280;14495;48.116;11.676;2023-06-04T09:21:07;95658.41;;;21.85;50.46
26937;BME280;14495;48.116;11.676;2023-06-04T09:26:09;95651.59;;;21.90;49.18
26937;BME280;14495;48.116;11.676;2023-06-04T09:28:34;95654.03;;;21.67;49.39
26937;BME280;14495;48.116;11.676;2023-06-04T09:31:00;95666.38;;;21.34;49.51
26937;BME280;14495;48.116;11.676;2023-06-04T09:33:27;95663.66;;;21.52;49.82
26937;BME280;14495;48.116;11.676;2023-06-04T09:35:57;95656.88;;;21.74;48.49
26937;BME280;14495;48.116;11.676;2023-06-04T09:38:23;95654.91;;;22.00;48.59
26937;BME280;14495;48.116;11.676;2023-06-04T09:40:48;95654.59;;;22.04;47.70
26937;BME280;14495;48.116;11.676;2023-06-04T09:43:23;95644.88;;;21.45;48.09
26937;BME280;14495;48.116;11.676;2023-06-04T09:45:49;95642.53;;;20.99;49.39
26937;BME280;14495;48.116;11.676;2023-06-04T09:48:20;95653.56;;;21.72;49.50
26937;BME280;14495;48.116;11.676;2023-06-04T09:50:48;95653.44;;;22.06;48.70
26937;BME280;14495;48.116;11.676;2023-06-04T09:53:20;95651.28;;;22.26;46.66
26937;BME280;14495;48.116;11.676;2023-06-04T09:56:01;95646.56;;;21.54;47.52
26937;BME280;14495;48.116;11.676;2023-06-04T09:58:29;95642.44;;;21.85;48.20
26937;BME280;14495;48.116;11.676;2023-06-04T10:00:56;95648.94;;;22.15;47.40
26937;BME280;14495;48.116;11.676;2023-06-04T10:03:25;95642.28;;;22.11;48.35
26937;BME280;14495;48.116;11.676;2023-06-04T10:05:57;95639.41;;;22.62;47.41
26937;BME280;14495;48.116;11.676;2023-06-04T10:08:22;95644.66;;;22.30;46.00
26937;BME280;14495;48.116;11.676;2023-06-04T10:10:55;95647.78;;;22.26;45.78
26937;BME280;14495;48.116;11.676;2023-06-04T10:13:23;95645.59;;;21.72;46.51
26937;BME280;14495;48.116;11.676;2023-06-04T10:15:50;95640.44;;;22.11;45.99
26937;BME280;14495;48.116;11.676;2023-06-04T10:18:16;95638.63;;;22.20;47.02
26937;BME280;14495;48.116;11.676;2023-06-04T10:20:42;95641.47;;;22.10;45.88
26937;BME280;14495;48.116;11.676;2023-06-04T10:23:08;95641.25;;;21.54;46.90
26937;BME280;14495;48.116;11.676;2023-06-04T10:25:37;95655.78;;;21.42;47.04
26937;BME280;14495;48.116;11.676;2023-06-04T10:28:03;95649.41;;;21.18;46.56
26937;BME280;14495;48.116;11.676;2023-06-04T10:30:31;95646.50;;;21.38;46.26
26937;BME280;14495;48.116;11.676;2023-06-04T10:32:57;95646.72;;;21.53;46.58
26937;BME280;14495;48.116;11.676;2023-06-04T10:35:33;95652.06;;;21.77;46.38
26937;BME280;14495;48.116;11.676;2023-06-04T10:38:11;95641.72;;;21.58;46.15
26937;BME280;14495;48.116;11.676;2023-06-04T10:40:38;95645.25;;;21.83;45.80
26937;BME280;14495;48.116;11.676;2023-06-04T10:43:11;95647.94;;;21.75;45.47
26937;BME280;14495;48.116;11.676;2023-06-04T10:45:41;95651.09;;;21.87;46.60
26937;BME280;14495;48.116;11.676;2023-06-04T10:48:11;95654.59;;;21.95;44.88
26937;BME280;14495;48.116;11.676;2023-06-04T10:50:51;95636.44;;;21.74;47.37
26937;BME280;14495;48.116;11.676;2023-06-04T10:53:18;95640.63;;;21.93;46.40
26937;BME280;14495;48.116;11.676;2023-06-04T10:55:46;95635.47;;;22.49;46.08
26937;BME280;14495;48.116;11.676;2023-06-04T10:58:11;95637.72;;;22.69;43.83
26937;BME280;14495;48.116;11.676;2023-06-04T11:00:41;95639.16;;;23.04;44.06
26937;BME280;14495;48.116;11.676;2023-06-04T11:03:09;95634.25;;;22.76;44.50
26937;BME280;14495;48.116;11.676;2023-06-04T11:05:39;95632.63;;;22.18;44.76
26937;BME280;14495;48.116;11.676;2023-06-04T11:08:05;95638.22;;;22.81;46.96
26937;BME280;14495;48.116;11.676;2023-06-04T11:10:36;95629.81;;;23.08;43.74
26937;BME280;14495;48.116;11.676;2023-06-04T11:13:03;95631.22;;;22.88;44.44
26937;BME280;14495;48.116;11.676;2023-06-04T11:15:42;95630.81;;;23.07;44.37
26937;BME280;14495;48.116;11.676;2023-06-04T11:18:16;95637.91;;;23.23;42.87
26937;BME280;14495;48.116;11.676;2023-06-04T11:20:44;95631.13;;;23.12;43.66
26937;BME280;14495;48.116;11.676;2023-06-04T11:23:11;95628.72;;;23.34;43.44
26937;BME280;14495;48.116;11.676;2023-06-04T11:25:37;95624.13;;;23.74;43.27
26937;BME280;14495;48.116;11.676;2023-06-04T11:28:02;95625.44;;;24.01;43.80
26937;BME280;14495;48.116;11.676;2023-06-04T11:30:28;95631.63;;;23.47;43.17
26937;BME280;14495;48.116;11.676;2023-06-04T11:33:01;95633.28;;;23.48;43.07
26937;BME280;14495;48.116;11.676;2023-06-04T11:35:27;95628.63;;;23.73;44.40
26937;BME280;14495;48.116;11.676;2023-06-04T11:37:54;95617.81;;;23.67;42.70
26937;BME280;14495;48.116;11.676;2023-06-04T11:40:20;95624.63;;;23.46;42.52
26937;BME280;14495;48.116;11.676;2023-06-04T11:42:49;95621.78;;;23.16;42.99
26937;BME280;14495;48.116;11.676;2023-06-04T11:45:19;95627.09;;;23.56;42.23
26937;BME280;14495;48.116;11.676;2023-06-04T11:47:50;95619.66;;;23.66;41.89
26937;BME280;14495;48.116;11.676;2023-06-04T11:50:16;95617.31;;;23.95;43.00
26937;BME280;14495;48.116;11.676;2023-06-04T11:52:42;95617.47;;;23.70;41.47
26937;BME280;14495;48.116;11.676;2023-06-04T11:55:09;95618.38;;;23.31;42.97
26937;BME280;14495;48.116;11.676;2023-06-04T11:57:36;95604.56;;;22.80;42.91
26937;BME280;14495;48.116;11.676;2023-06-04T12:00:02;95606.47;;;23.02;43.35
26937;BME280;14495;48.116;11.676;2023-06-04T12:02:27;95604.81;;;23.09;43.27
26937;BME280;14495;48.116;11.676;2023-06-04T12:04:53;95607.25;;;23.50;42.29
26937;BME280;14495;48.116;11.676;2023-06-04T12:07:21;95601.25;;;23.80;42.05
26937;BME280;14495;48.116;11.676;2023-06-04T12:09:50;95598.28;;;23.98;41.42
26937;BME280;14495;48.116;11.676;2023-06-04T12:12:21;95594.56;;;23.84;41.11
26937;BME280;14495;48.116;11.676;2023-06-04T12:14:47;95603.44;;;24.37;41.56
26937;BME280;14495;48.116;11.676;2023-06-04T12:17:12;95606.16;;;24.14;40.58
26937;BME280;14495;48.116;11.676;2023-06-04T12:19:48;95597.50;;;23.66;40.75
26937;BME280;14495;48.116;11.676;2023-06-04T12:22:14;95600.06;;;24.05;40.51
26937;BME280;14495;48.116;11.676;2023-06-04T12:24:53;95609.78;;;23.75;41.42
26937;BME280;14495;48.116;11.676;2023-06-04T12:27:19;95608.34;;;23.64;40.67
26937;BME280;14495;48.116;11.676;2023-06-04T12:30:02;95597.19;;;23.61;39.90
26937;BME280;14495;48.116;11.676;2023-06-04T12:32:29;95596.28;;;24.00;42.17
26937;BME280;14495;48.116;11.676;2023-06-04T12:34:54;95601.97;;;23.97;40.79
26937;BME280;14495;48.116;11.676;2023-06-04T12:37:21;95596.28;;;24.00;40.70
26937;BME280;14495;48.116;11.676;2023-06-04T12:39:50;95587.69;;;24.27;40.74
26937;BME280;14495;48.116;11.676;2023-06-04T12:42:17;95603.22;;;24.24;40.53
26937;BME280;14495;48.116;11.676;2023-06-04T12:44:44;95603.34;;;24.30;39.74
26937;BME280;14495;48.116;11.676;2023-06-04T12:47:12;95593.09;;;24.04;39.73
26937;BME280;14495;48.116;11.676;2023-06-04T12:49:37;95595.03;;;24.25;39.25
26937;BME280;14495;48.116;11.676;2023-06-04T12:52:05;95585.63;;;24.82;41.25